createdAt,value
2024-03-06T00:01:59.339Z,15.87
2024-03-06T00:04:26.129Z,15.57
2024-03-06T00:06:53.958Z,17.57
2024-03-06T00:09:20.825Z,14.87
2024-03-06T00:11:47.810Z,14.93
2024-03-06T00:14:14.711Z,16.33
2024-03-06T00:16:41.489Z,15.53
2024-03-06T00:19:08.324Z,13.50
2024-03-06T00:21:37.247Z,15.47
2024-03-06T00:24:04.985Z,15.27
2024-03-06T00:26:31.859Z,13.90
2024-03-06T00:28:58.812Z,14.83
2024-03-06T00:31:25.642Z,13.37
2024-03-06T00:33:52.583Z,14.00
2024-03-06T00:36:19.281Z,13.33
2024-03-06T00:38:46.090Z,12.50
2024-03-06T00:41:12.873Z,11.57
2024-03-06T00:43:39.809Z,12.70
2024-03-06T00:46:06.730Z,11.13
2024-03-06T00:48:34.046Z,10.93
2024-03-06T00:51:00.859Z,11.53
2024-03-06T00:53:27.758Z,11.77
2024-03-06T00:55:54.918Z,12.37
2024-03-06T00:58:21.759Z,9.13
2024-03-06T01:00:48.627Z,8.73
2024-03-06T01:03:15.423Z,9.07
2024-03-06T01:05:42.268Z,8.37
2024-03-06T01:08:09.092Z,8.10
2024-03-06T01:10:36.780Z,7.97
2024-03-06T01:13:03.815Z,7.37
2024-03-06T01:15:30.653Z,7.80
2024-03-06T01:17:58.730Z,6.90
2024-03-06T01:20:26.008Z,7.23
2024-03-06T01:22:52.890Z,7.40
2024-03-06T01:25:19.804Z,7.13
2024-03-06T01:27:46.568Z,7.23
2024-03-06T01:30:13.416Z,9.83
2024-03-06T01:32:40.261Z,8.23
2024-03-06T01:35:08.131Z,8.23
2024-03-06T01:37:35.136Z,7.30
2024-03-06T01:40:05.156Z,7.40
2024-03-06T01:42:32.196Z,7.40
2024-03-06T01:44:59.068Z,7.80
2024-03-06T01:47:25.981Z,7.60
2024-03-06T01:49:52.971Z,7.97
2024-03-06T01:52:21.935Z,7.40
2024-03-06T01:54:50.468Z,7.77
2024-03-06T01:57:18.675Z,7.03
2024-03-06T01:59:45.669Z,7.00
2024-03-06T02:02:12.774Z,7.43
2024-03-06T02:04:40.174Z,6.20
2024-03-06T02:07:14.240Z,5.83
2024-03-06T02:09:41.422Z,6.77
2024-03-06T02:12:09.598Z,6.33
2024-03-06T02:14:39.673Z,5.47
2024-03-06T02:17:06.698Z,5.83
2024-03-06T02:19:45.038Z,4.97
2024-03-06T02:22:12.628Z,5.70
2024-03-06T02:24:46.798Z,5.40
2024-03-06T02:27:13.769Z,6.20
2024-03-06T02:29:40.610Z,5.20
2024-03-06T02:32:07.492Z,6.30
2024-03-06T02:34:34.281Z,6.17
2024-03-06T02:37:01.230Z,6.50
2024-03-06T02:39:28.073Z,5.90
2024-03-06T02:41:54.884Z,5.80
2024-03-06T02:44:21.743Z,6.30
2024-03-06T02:46:51.825Z,6.97
2024-03-06T02:49:19.440Z,7.07
2024-03-06T02:51:46.398Z,6.17
2024-03-06T02:54:13.362Z,7.20
2024-03-06T02:56:40.062Z,6.93
2024-03-06T02:59:06.925Z,8.00
2024-03-06T03:01:33.958Z,7.57
2024-03-06T03:04:01.486Z,7.80
2024-03-06T03:06:28.795Z,8.03
2024-03-06T03:08:55.585Z,8.80
2024-03-06T03:11:22.407Z,7.20
2024-03-06T03:13:49.231Z,7.90
2024-03-06T03:16:19.955Z,6.97
2024-03-06T03:18:47.036Z,7.93
2024-03-06T03:21:16.796Z,8.40
2024-03-06T03:23:43.641Z,7.20
2024-03-06T03:26:13.863Z,7.60
2024-03-06T03:28:41.197Z,8.13
2024-03-06T03:31:10.125Z,7.63
2024-03-06T03:33:46.022Z,7.80
2024-03-06T03:36:12.760Z,8.00
2024-03-06T03:38:42.167Z,7.70
2024-03-06T03:41:14.200Z,7.30
2024-03-06T03:43:42.741Z,7.43
2024-03-06T03:46:10.666Z,7.37
2024-03-06T03:48:38.378Z,6.83
2024-03-06T03:51:06.280Z,6.73
2024-03-06T03:53:33.714Z,7.00
2024-03-06T03:56:01.837Z,6.63
2024-03-06T03:58:28.662Z,6.60
2024-03-06T04:00:56.860Z,6.60
2024-03-06T04:03:25.076Z,6.77
2024-03-06T04:05:52.014Z,6.27
2024-03-06T04:08:19.229Z,5.23
2024-03-06T04:10:46.661Z,6.03
2024-03-06T04:13:14.312Z,5.93
2024-03-06T04:15:41.150Z,5.43
2024-03-06T04:18:08.070Z,5.53
2024-03-06T04:20:35.266Z,5.60
2024-03-06T04:23:03.307Z,5.50
2024-03-06T04:25:30.203Z,5.33
2024-03-06T04:27:57.112Z,5.43
2024-03-06T04:30:24.224Z,5.50
2024-03-06T04:32:51.184Z,4.87
2024-03-06T04:35:18.161Z,5.70
2024-03-06T04:37:45.605Z,5.33
2024-03-06T04:40:12.983Z,5.60
2024-03-06T04:42:39.972Z,6.10
2024-03-06T04:45:16.263Z,5.43
2024-03-06T04:47:43.538Z,5.80
2024-03-06T04:50:15.654Z,4.83
2024-03-06T04:52:43.571Z,5.43
2024-03-06T04:55:13.837Z,6.17
2024-03-06T04:57:44.057Z,5.03
2024-03-06T05:00:12.139Z,5.00
2024-03-06T06:00:15.010Z,6.10
2024-03-06T06:02:42.041Z,5.93
2024-03-06T06:05:22.570Z,6.80
2024-03-06T06:07:51.763Z,7.50
2024-03-06T06:10:21.468Z,6.70
2024-03-06T06:12:49.722Z,6.60
2024-03-06T06:15:16.890Z,6.97
2024-03-06T06:17:45.975Z,6.13
2024-03-06T06:20:16.718Z,8.73
2024-03-06T06:22:44.417Z,6.80
2024-03-06T06:25:11.801Z,7.30
2024-03-06T06:27:39.657Z,6.77
2024-03-06T06:30:08.355Z,5.60
2024-03-06T06:32:36.197Z,6.83
2024-03-06T06:35:03.353Z,7.77
2024-03-06T06:37:30.240Z,6.90
2024-03-06T06:39:57.204Z,6.03
2024-03-06T06:42:25.188Z,7.10
2024-03-06T06:44:51.959Z,6.60
2024-03-06T06:47:18.953Z,6.63
2024-03-06T06:49:45.954Z,6.67
2024-03-06T06:52:12.926Z,7.10
2024-03-06T06:54:39.716Z,7.40
2024-03-06T06:57:06.489Z,7.23
2024-03-06T06:59:33.410Z,8.33
2024-03-06T07:02:00.601Z,7.63
2024-03-06T07:04:27.663Z,6.53
2024-03-06T07:06:54.429Z,6.63
2024-03-06T07:09:21.553Z,7.30
2024-03-06T07:11:49.237Z,7.60
2024-03-06T07:14:17.389Z,7.50
2024-03-06T07:16:45.262Z,7.57
2024-03-06T07:19:12.528Z,7.43
2024-03-06T07:21:39.384Z,8.00
2024-03-06T07:24:06.515Z,7.30
2024-03-06T07:26:34.221Z,7.57
2024-03-06T07:29:02.255Z,6.67
2024-03-06T07:31:29.801Z,6.80
2024-03-06T07:33:56.607Z,7.60
2024-03-06T07:36:23.473Z,7.40
2024-03-06T07:38:50.278Z,6.43
2024-03-06T07:41:17.237Z,5.70
2024-03-06T07:43:44.690Z,6.03
2024-03-06T07:46:12.463Z,6.70
2024-03-06T07:48:42.765Z,7.23
2024-03-06T07:51:09.551Z,7.90
2024-03-06T07:53:36.486Z,7.03
2024-03-06T07:56:04.760Z,6.77
2024-03-06T07:58:32.385Z,7.13
2024-03-06T08:01:00.591Z,6.50
2024-03-06T08:03:27.443Z,6.27
2024-03-06T08:05:54.716Z,6.07
2024-03-06T08:08:22.321Z,7.10
2024-03-06T08:10:49.532Z,7.17
2024-03-06T08:13:17.014Z,6.43
2024-03-06T08:15:45.256Z,6.97
2024-03-06T08:18:12.549Z,6.50
2024-03-06T08:20:40.110Z,6.03
2024-03-06T08:23:08.438Z,6.27
2024-03-06T08:25:35.166Z,9.50
2024-03-06T08:28:04.663Z,5.63
2024-03-06T08:30:34.315Z,6.33
2024-03-06T08:33:01.728Z,7.43
2024-03-06T08:35:29.012Z,6.50
2024-03-06T08:37:55.878Z,6.33
2024-03-06T08:40:24.477Z,6.17
2024-03-06T08:42:51.481Z,7.67
2024-03-06T08:45:18.936Z,6.37
2024-03-06T08:47:46.615Z,6.77
2024-03-06T08:50:14.492Z,7.20
2024-03-06T08:52:42.831Z,8.90
2024-03-06T08:55:10.394Z,7.00
2024-03-06T08:57:37.954Z,5.90
2024-03-06T09:00:09.778Z,6.77
2024-03-06T09:02:36.725Z,5.80
2024-03-06T09:05:05.839Z,6.40
2024-03-06T09:07:32.810Z,6.97
2024-03-06T09:09:59.675Z,6.70
2024-03-06T09:12:26.691Z,6.87
2024-03-06T09:14:53.508Z,7.07
2024-03-06T09:17:20.369Z,6.30
2024-03-06T09:19:59.217Z,6.70
2024-03-06T09:22:31.176Z,7.90
2024-03-06T09:24:57.970Z,8.67
2024-03-06T09:27:24.774Z,7.77
2024-03-06T09:29:51.503Z,8.27
2024-03-06T09:32:20.519Z,8.87
2024-03-06T09:34:47.646Z,7.20
2024-03-06T09:37:14.424Z,8.27
2024-03-06T09:39:41.480Z,7.97
2024-03-06T09:42:08.877Z,6.43
2024-03-06T09:44:36.210Z,6.90
2024-03-06T09:47:06.917Z,7.33
2024-03-06T09:49:35.708Z,7.30
2024-03-06T09:52:05.031Z,6.87
2024-03-06T09:54:31.970Z,10.17
2024-03-06T09:57:00.155Z,7.50
2024-03-06T09:59:28.356Z,8.03
2024-03-06T10:02:03.482Z,8.83
2024-03-06T10:04:33.444Z,9.93
2024-03-06T10:07:01.308Z,10.77
2024-03-06T10:09:28.841Z,10.03
2024-03-06T10:11:58.637Z,11.70
2024-03-06T10:14:26.491Z,10.23
2024-03-06T10:16:57.958Z,9.80
2024-03-06T10:19:28.588Z,11.67
2024-03-06T10:21:56.460Z,12.10
2024-03-06T10:24:25.189Z,13.50
2024-03-06T10:27:01.707Z,11.43
2024-03-06T10:29:30.357Z,12.20
2024-03-06T10:31:59.148Z,13.40
2024-03-06T10:34:27.800Z,12.27
2024-03-06T10:36:58.175Z,13.40
2024-03-06T10:39:25.761Z,11.77
2024-03-06T10:41:58.012Z,12.70
2024-03-06T10:44:28.758Z,13.70
2024-03-06T10:46:58.790Z,15.00
2024-03-06T10:49:28.914Z,13.57
2024-03-06T10:52:02.693Z,16.90
2024-03-06T10:54:38.049Z,15.23
2024-03-06T10:57:05.605Z,16.20
2024-03-06T10:59:32.688Z,17.00
2024-03-06T11:02:03.927Z,16.97
2024-03-06T11:04:35.284Z,17.33
2024-03-06T11:07:04.018Z,18.97
2024-03-06T11:09:41.924Z,17.70
2024-03-06T11:12:09.134Z,19.50
2024-03-06T11:14:41.170Z,18.83
2024-03-06T11:17:11.804Z,19.17
2024-03-06T11:20:10.579Z,19.10
2024-03-06T11:23:00.394Z,20.00
2024-03-06T11:25:54.209Z,23.97
2024-03-06T11:28:29.368Z,21.17
2024-03-06T11:31:04.673Z,20.20
2024-03-06T11:33:39.025Z,24.77
2024-03-06T11:36:24.709Z,23.30
2024-03-06T11:39:08.949Z,22.27
2024-03-06T11:41:45.126Z,24.00
2024-03-06T11:44:17.713Z,24.30
2024-03-06T11:46:58.704Z,23.50
2024-03-06T11:49:27.234Z,22.90
2024-03-06T11:52:06.005Z,25.83
2024-03-06T11:54:34.324Z,23.97
2024-03-06T11:57:03.469Z,26.00
2024-03-06T11:59:31.339Z,24.63
2024-03-06T12:02:03.818Z,24.93
2024-03-06T12:04:32.231Z,24.93
2024-03-06T12:07:01.156Z,23.67
2024-03-06T12:09:28.189Z,24.47
2024-03-06T12:11:58.473Z,24.30
2024-03-06T12:14:25.668Z,22.23
2024-03-06T12:16:59.574Z,23.50
2024-03-06T12:19:47.761Z,22.63
2024-03-06T12:22:16.681Z,22.67
2024-03-06T12:24:44.088Z,23.07
2024-03-06T12:27:11.167Z,23.27
2024-03-06T12:29:39.113Z,22.73
2024-03-06T12:32:16.707Z,22.17
2024-03-06T12:34:43.473Z,20.10
2024-03-06T12:37:13.880Z,20.07
2024-03-06T12:39:43.483Z,20.53
2024-03-06T12:42:11.081Z,22.20
2024-03-06T12:44:38.336Z,22.87
2024-03-06T12:47:05.411Z,22.10
2024-03-06T12:49:32.196Z,23.27
2024-03-06T12:52:01.399Z,19.90
2024-03-06T12:54:29.576Z,20.60
2024-03-06T12:56:58.095Z,22.23
2024-03-06T12:59:24.954Z,21.37
2024-03-06T13:01:52.041Z,22.10
2024-03-06T13:04:19.342Z,22.20
2024-03-06T13:06:46.814Z,25.03
2024-03-06T13:09:13.760Z,23.80
2024-03-06T13:14:13.038Z,24.53
2024-03-06T13:16:41.361Z,25.60
2024-03-06T13:19:09.395Z,24.93
2024-03-06T13:21:36.426Z,25.93
2024-03-06T13:24:04.102Z,26.73
2024-03-06T13:26:31.137Z,25.97
2024-03-06T13:28:57.897Z,25.10
2024-03-06T13:31:24.726Z,25.53
2024-03-06T13:33:51.682Z,25.20
2024-03-06T13:36:18.540Z,24.90
2024-03-06T13:38:46.022Z,26.40
2024-03-06T13:41:13.081Z,24.33
2024-03-06T13:43:40.092Z,26.10
2024-03-06T13:46:07.177Z,24.93
2024-03-06T13:48:34.075Z,24.10
2024-03-06T13:51:01.083Z,23.20
2024-03-06T13:53:27.995Z,26.47
2024-03-06T13:55:54.962Z,25.30
2024-03-06T13:58:21.737Z,25.70
2024-03-06T14:00:48.510Z,25.93
2024-03-06T14:03:15.434Z,22.47
2024-03-06T14:05:42.191Z,24.53
2024-03-06T14:08:13.082Z,26.80
2024-03-06T14:10:41.763Z,23.27
2024-03-06T14:13:09.802Z,24.30
2024-03-06T14:15:39.200Z,24.87
2024-03-06T14:18:07.641Z,25.40
2024-03-06T14:20:34.729Z,25.63
2024-03-06T14:23:01.689Z,25.97
2024-03-06T14:25:28.640Z,25.07
2024-03-06T14:27:55.475Z,22.90
2024-03-06T14:30:22.461Z,23.73
2024-03-06T14:32:49.467Z,26.97
2024-03-06T14:35:16.531Z,21.73
2024-03-06T14:37:43.433Z,23.83
2024-03-06T14:40:11.002Z,26.73
2024-03-06T14:42:37.965Z,25.77
2024-03-06T14:45:06.505Z,24.80
2024-03-06T14:47:34.298Z,22.33
2024-03-06T14:50:01.319Z,21.03
2024-03-06T14:52:28.166Z,19.87
2024-03-06T14:54:55.083Z,22.53
2024-03-06T14:57:23.133Z,24.07
2024-03-06T14:59:51.085Z,21.30
2024-03-06T15:02:20.814Z,21.23
2024-03-06T15:04:47.541Z,21.63
2024-03-06T15:07:14.476Z,21.60
2024-03-06T15:09:41.256Z,21.03
2024-03-06T15:12:08.760Z,20.77
2024-03-06T15:14:39.898Z,22.87
2024-03-06T15:17:13.373Z,22.00
2024-03-06T15:19:41.442Z,21.87
2024-03-06T15:22:08.763Z,21.90
2024-03-06T15:24:35.563Z,21.07
2024-03-06T15:27:02.632Z,24.90
2024-03-06T15:29:29.440Z,25.00
2024-03-06T15:31:56.217Z,24.40
2024-03-06T15:34:22.948Z,26.53
2024-03-06T15:36:49.894Z,25.80
2024-03-06T15:39:16.767Z,22.00
2024-03-06T15:41:43.704Z,23.97
2024-03-06T15:44:10.627Z,25.87
2024-03-06T15:46:37.481Z,25.57
2024-03-06T15:49:08.709Z,25.93
2024-03-06T15:51:35.557Z,24.60
2024-03-06T15:54:02.282Z,24.33
2024-03-06T15:56:29.870Z,24.53
2024-03-06T15:58:56.682Z,25.07
2024-03-06T16:01:23.456Z,25.73
2024-03-06T16:03:53.536Z,27.10
2024-03-06T16:06:23.204Z,26.73
2024-03-06T16:08:52.929Z,26.33
2024-03-06T16:11:19.935Z,24.37
2024-03-06T16:13:46.745Z,25.47
2024-03-06T16:16:13.451Z,27.37
2024-03-06T16:18:40.309Z,28.90
2024-03-06T16:21:07.989Z,26.47
2024-03-06T16:23:34.880Z,29.30
2024-03-06T16:26:04.764Z,27.53
2024-03-06T16:28:31.762Z,25.50
2024-03-06T16:30:58.944Z,26.53
2024-03-06T16:33:25.951Z,26.47
2024-03-06T16:35:52.803Z,29.27
2024-03-06T16:38:20.905Z,27.60
2024-03-06T16:40:47.948Z,26.53
2024-03-06T16:43:15.494Z,25.03
2024-03-06T16:45:42.798Z,27.67
2024-03-06T16:48:11.524Z,29.07
2024-03-06T16:50:38.804Z,28.87
2024-03-06T16:53:07.696Z,27.97
2024-03-06T16:55:35.946Z,26.10
2024-03-06T16:58:03.215Z,27.20
2024-03-06T17:00:30.160Z,26.30
2024-03-06T17:02:58.184Z,26.33
2024-03-06T17:05:25.180Z,29.03
2024-03-06T17:07:52.065Z,26.80
2024-03-06T17:10:18.844Z,27.20
2024-03-06T17:12:45.701Z,29.73
2024-03-06T17:15:13.882Z,27.10
2024-03-06T17:17:40.747Z,27.87
2024-03-06T17:20:08.192Z,27.53
2024-03-06T17:22:35.018Z,27.53
2024-03-06T17:25:01.827Z,26.70
2024-03-06T17:27:28.602Z,31.60
2024-03-06T17:29:55.823Z,32.57
2024-03-06T17:32:24.791Z,30.27
2024-03-06T17:34:51.695Z,30.37
2024-03-06T17:37:18.622Z,31.37
2024-03-06T17:39:45.801Z,28.30
2024-03-06T17:42:12.606Z,32.43
2024-03-06T17:44:39.536Z,31.70
2024-03-06T17:47:06.719Z,30.97
2024-03-06T17:49:33.531Z,30.90
2024-03-06T17:52:00.907Z,29.60
2024-03-06T17:54:27.730Z,30.63
2024-03-06T17:56:56.399Z,31.77
2024-03-06T17:59:23.481Z,30.27
2024-03-06T18:01:50.513Z,29.73
2024-03-06T18:04:17.383Z,30.17
2024-03-06T18:06:44.224Z,28.83
2024-03-06T18:09:16.467Z,27.03
2024-03-06T18:11:44.385Z,28.07
2024-03-06T18:14:11.655Z,26.40
2024-03-06T18:16:38.676Z,25.53
2024-03-06T18:19:06.638Z,26.80
2024-03-06T18:21:33.643Z,26.60
2024-03-06T18:24:00.502Z,26.70
2024-03-06T18:26:27.424Z,27.93
2024-03-06T18:28:54.269Z,27.20
2024-03-06T18:31:21.283Z,27.60
2024-03-06T18:33:48.132Z,26.83
2024-03-06T18:36:14.964Z,28.13
2024-03-06T18:38:45.662Z,26.50
2024-03-06T18:41:12.858Z,26.17
2024-03-06T18:43:40.868Z,26.13
2024-03-06T18:46:08.752Z,26.20
2024-03-06T18:48:35.578Z,27.37
2024-03-06T18:51:04.336Z,14.80
2024-03-06T18:53:31.353Z,23.87
2024-03-06T18:55:58.115Z,25.80
2024-03-06T18:58:26.256Z,25.90
2024-03-06T19:00:53.294Z,25.13
2024-03-06T19:03:20.370Z,24.87
2024-03-06T19:05:47.648Z,25.20
2024-03-06T19:08:15.070Z,27.00
2024-03-06T19:10:42.843Z,25.73
2024-03-06T19:13:10.124Z,26.97
2024-03-06T19:15:37.121Z,27.40
2024-03-06T19:18:05.752Z,27.70
2024-03-06T19:20:32.782Z,27.13
2024-03-06T19:22:59.529Z,25.70
2024-03-06T19:25:26.431Z,26.03
2024-03-06T19:27:53.249Z,26.70
2024-03-06T19:30:21.403Z,26.00
2024-03-06T19:32:54.547Z,28.37
2024-03-06T19:35:26.880Z,28.30
2024-03-06T19:37:54.507Z,26.83
2024-03-06T19:40:21.562Z,28.67
2024-03-06T19:42:48.600Z,28.80
2024-03-06T19:45:15.894Z,29.80
2024-03-06T19:47:42.969Z,28.17
2024-03-06T19:50:10.436Z,31.27
2024-03-06T19:52:37.704Z,30.60
2024-03-06T19:55:05.477Z,28.67
2024-03-06T19:57:32.699Z,31.30
2024-03-06T20:00:04.105Z,30.53
2024-03-06T20:02:31.820Z,31.47
2024-03-06T20:04:58.766Z,31.93
2024-03-06T20:07:25.757Z,32.13
2024-03-06T20:09:53.031Z,31.80
2024-03-06T20:12:20.390Z,32.43
2024-03-06T20:14:47.590Z,30.80
2024-03-06T20:17:16.598Z,34.70
2024-03-06T20:19:43.895Z,35.27
2024-03-06T20:22:10.820Z,30.97
2024-03-06T20:24:37.945Z,33.30
2024-03-06T20:27:05.418Z,31.83
2024-03-06T20:29:32.470Z,29.97
2024-03-06T20:31:59.403Z,33.17
2024-03-06T20:34:27.433Z,32.67
2024-03-06T20:36:54.441Z,29.77
2024-03-06T20:39:22.976Z,31.83
2024-03-06T20:41:50.823Z,31.20
2024-03-06T20:44:18.038Z,32.67
2024-03-06T20:46:45.449Z,34.10
2024-03-06T20:49:13.259Z,34.20
2024-03-06T20:51:43.236Z,34.47
2024-03-06T20:54:10.129Z,33.60
2024-03-06T20:56:37.132Z,33.63
2024-03-06T20:59:04.059Z,31.37
2024-03-06T21:01:30.918Z,34.07
2024-03-06T21:03:58.584Z,33.87
2024-03-06T21:06:26.936Z,34.90
2024-03-06T21:08:54.099Z,31.87
2024-03-06T21:11:22.473Z,33.93
2024-03-06T21:13:49.856Z,34.37
2024-03-06T21:16:17.618Z,33.57
2024-03-06T21:18:44.674Z,35.30
2024-03-06T21:21:11.667Z,35.07
2024-03-06T21:23:38.654Z,34.90
2024-03-06T21:26:05.579Z,35.37
2024-03-06T21:28:32.974Z,42.47
2024-03-06T21:31:00.325Z,38.00
2024-03-06T21:33:27.242Z,34.03
2024-03-06T21:35:54.319Z,34.87
2024-03-06T21:38:21.270Z,35.90
2024-03-06T21:40:48.979Z,36.00
2024-03-06T21:43:16.575Z,35.77
2024-03-06T21:45:43.532Z,35.37
2024-03-06T21:48:11.937Z,34.70
2024-03-06T21:50:39.184Z,38.83
2024-03-06T21:53:06.092Z,35.20
2024-03-06T21:55:34.005Z,34.93
2024-03-06T21:58:00.882Z,35.70
2024-03-06T22:00:27.721Z,34.57
2024-03-06T22:02:54.631Z,36.70
2024-03-06T22:05:21.599Z,34.57
2024-03-06T22:07:49.702Z,33.13
2024-03-06T22:10:16.586Z,34.30
2024-03-06T22:12:43.498Z,33.57
2024-03-06T22:15:10.772Z,32.93
2024-03-06T22:17:38.274Z,35.40
2024-03-06T22:20:07.436Z,34.30
2024-03-06T22:22:34.350Z,34.77
2024-03-06T22:25:08.333Z,34.47
2024-03-06T22:27:35.829Z,33.20
2024-03-06T22:30:02.900Z,35.17
2024-03-06T22:32:33.174Z,35.93
2024-03-06T22:35:03.309Z,34.00
2024-03-06T22:37:30.493Z,33.33
2024-03-06T22:39:57.584Z,37.23
2024-03-06T22:42:24.524Z,35.17
2024-03-06T22:44:51.491Z,36.67
2024-03-06T22:47:18.369Z,35.00
2024-03-06T22:49:45.341Z,36.47
2024-03-06T22:52:12.142Z,33.37
2024-03-06T22:54:38.884Z,34.23
2024-03-06T22:57:08.355Z,34.93
2024-03-06T22:59:35.234Z,35.80
2024-03-06T23:02:02.805Z,35.93
2024-03-06T23:04:29.826Z,34.60
2024-03-06T23:06:56.805Z,35.63
2024-03-06T23:09:23.709Z,32.93
2024-03-06T23:11:50.587Z,27.30
2024-03-06T23:14:18.039Z,35.30
2024-03-06T23:16:45.053Z,36.00
2024-03-06T23:19:12.096Z,35.43
2024-03-06T23:21:39.131Z,33.73
2024-03-06T23:24:06.161Z,35.47
2024-03-06T23:26:33.167Z,34.20
2024-03-06T23:29:00.012Z,33.73
2024-03-06T23:31:28.332Z,34.20
2024-03-06T23:33:55.146Z,33.27
2024-03-06T23:36:22.624Z,33.73
2024-03-06T23:38:49.585Z,34.07
2024-03-06T23:41:16.683Z,32.43
2024-03-06T23:43:43.437Z,32.50
2024-03-06T23:46:10.562Z,34.17
2024-03-06T23:48:37.587Z,30.60
2024-03-06T23:51:05.197Z,30.57
2024-03-06T23:53:32.142Z,31.87
2024-03-06T23:55:59.016Z,32.60
2024-03-06T23:58:26.034Z,33.63
